Portada
METAR-TAF:

METAR-TAF

Aeropuertos :

Tarawa, Kiribati

Aeropuerto Internacional Bonriki

latitud: 01-21N, longitud: 172-55E, altitud: 2 m

Observación

El informe se hizo hace 1 hora y 3 minutos, a las 01:00 UTC
Viento 12 kt del este-noreste
Temperatura 31°C
Humedad 71%
Presión 1007 hPa
Visibilidad 10 km o más
Escasas nubes a una altura de 2000 ft
Cielo nuboso a una altura de 30000 ft

METAR: NGTA 230100Z 07012KT 9999 FEW020 BKN300 31/25 Q1007

Hora: 16:03 (02:03 UTC)

Pronóstico

El informe se hizo hace 2 horas y 52 minutos, a las 23:11 UTC
Pronóstico válido del 23 a las 00 UTC al 23 a las 24 UTC
Viento 14 kt del este
Visibilidad 10 km o más
Escasas nubes a una altura de 2000 ft
Nubes dispersas a una altura de 10000 ft

TAF: NGTA 222311Z 2300/2324 10014KT 9999 FEW020 SCT100

Observaciones y pronósticos meteorológicos de más de 4000 aeropuertos (mensajes METAR y TAF).

Los puntos amarillos y rojos representan las estaciones disponibles.

Ponga el ratón en el punto deseado para ver el nombre de la estación.

Haga clic para ver las observaciones y los pronósticos meteorológicos.

Para cambiar el mapa : haga clic en los botones verdes con una cruz de color negro para hacer un zoom, en el botón verde con un guión para alejar o en las flechas verdes para mapas adyacentes.


METAR-TAF: